Time;durP1;ratioP1;P1;durP2;ratioP2;P2;SDS_P1;SDS_P2;PMS_P1;PMS_P2;Temp;Humidity;BMP_temperature;BMP_pressure;BME280_temperature;BME280_humidity;BME280_pressure;Samples;Min_cycle;Max_cycle;Signal;HPM_P1;HPM_P2
2021/06/08 00:01:48;;;;;;;;;;;;;;;16.52;66.14;99807.19;4326098;33;34077;-94
2021/06/08 00:07:40;;;;;;;;;;;;;;;16.50;66.64;99817.50;4314759;33;33407;-96
2021/06/08 00:10:46;;;;;;;;;;;;;;;16.48;66.74;99809.53;4275516;33;34901;-92
2021/06/08 00:13:19;;;;;;;;;;;;;;;16.70;65.60;99811.84;4315168;33;34980;-96
2021/06/08 00:16:10;;;;;;;;;;;;;;;16.50;66.08;99801.13;4331812;33;20364;-92
2021/06/08 00:18:42;;;;;;;;;;;;;;;16.70;65.24;99796.28;4332490;33;34327;-92
2021/06/08 00:21:15;;;;;;;;;;;;;;;16.34;66.42;99800.63;4320420;33;33921;-92
2021/06/08 00:23:48;;;;;;;;;;;;;;;16.19;67.45;99800.16;4320980;33;34804;-92
2021/06/08 00:26:21;;;;;;;;;;;;;;;16.38;66.75;99793.69;4321247;33;33906;-92
2021/06/08 00:28:53;;;;;;;;;;;;;;;16.34;67.00;99792.44;4321110;33;33683;-92
2021/06/08 00:31:26;;;;;;;;;;;;;;;16.54;66.25;99802.31;4321995;33;33752;-92
2021/06/08 00:34:10;;;;;;;;;;;;;;;16.64;65.93;99797.19;4320097;33;37164;-92
2021/06/08 00:36:43;;;;;;;;;;;;;;;16.28;67.41;99792.53;4340675;33;33751;-95
2021/06/08 00:39:16;;;;;;;;;;;;;;;16.46;66.87;99794.44;4330975;33;32703;-93
2021/06/08 00:41:51;;;;;;;;;;;;;;;16.70;65.79;99790.00;4306816;33;32532;-93
2021/06/08 00:44:23;;;;;;;;;;;;;;;16.63;66.54;99795.53;4294180;33;34694;-93
2021/06/08 00:46:57;;;;;;;;;;;;;;;16.47;66.74;99798.84;4295311;33;34609;-96
2021/06/08 00:49:30;;;;;;;;;;;;;;;16.74;65.59;99802.97;4304598;33;34599;-96
2021/06/08 00:52:16;;;;;;;;;;;;;;;16.59;66.47;99797.06;4279979;33;32123;-96
2021/06/08 00:54:50;;;;;;;;;;;;;;;16.63;66.36;99795.53;4289776;33;35114;-96
2021/06/08 00:57:36;;;;;;;;;;;;;;;16.56;66.64;99794.78;4288047;33;34832;-96
2021/06/08 01:00:09;;;;;;;;;;;;;;;16.55;66.94;99790.38;4290130;33;33142;-96
2021/06/08 01:02:55;;;;;;;;;;;;;;;16.52;67.13;99786.19;4312786;33;32061;-96
2021/06/08 01:05:29;;;;;;;;;;;;;;;16.70;66.49;99788.09;4310741;33;34101;-96
2021/06/08 01:11:31;;;;;;;;;;;;;;;16.87;65.96;99779.34;4253683;33;36510;-93
2021/06/08 01:14:04;;;;;;;;;;;;;;;16.80;66.20;99776.66;4296382;33;34045;-96
2021/06/08 01:16:39;;;;;;;;;;;;;;;16.88;65.86;99775.56;4296318;33;33948;-96
2021/06/08 01:19:27;;;;;;;;;;;;;;;16.85;65.85;99776.81;4322676;33;34945;-96
2021/06/08 01:21:59;;;;;;;;;;;;;;;16.84;66.06;99774.31;4321538;33;32594;-96
2021/06/08 01:24:41;;;;;;;;;;;;;;;16.78;66.35;99776.03;4298590;33;32943;-95
2021/06/08 01:27:26;;;;;;;;;;;;;;;16.88;65.79;99778.28;4304935;33;33353;-96
2021/06/08 01:30:16;;;;;;;;;;;;;;;16.80;65.99;99789.50;4318363;33;32985;-96
2021/06/08 01:32:50;;;;;;;;;;;;;;;16.49;67.13;99794.00;4308291;33;32931;-92
2021/06/08 01:35:23;;;;;;;;;;;;;;;16.32;67.30;99786.41;4321842;33;32963;-93
2021/06/08 01:37:55;;;;;;;;;;;;;;;16.35;67.52;99791.41;4319990;33;34838;-96
2021/06/08 01:40:46;;;;;;;;;;;;;;;15.88;69.68;99799.97;4305900;33;33091;-96
2021/06/08 01:43:32;;;;;;;;;;;;;;;16.15;68.92;99807.09;4300091;33;34693;-93
2021/06/08 01:46:05;;;;;;;;;;;;;;;16.20;68.76;99810.81;4293414;33;33166;-96
2021/06/08 01:48:38;;;;;;;;;;;;;;;16.51;67.30;99805.50;4279646;33;34396;-93
2021/06/08 01:51:31;;;;;;;;;;;;;;;16.18;68.36;99810.22;4281905;33;33784;-93
2021/06/08 01:54:24;;;;;;;;;;;;;;;16.21;68.32;99803.47;4333361;33;34945;-93
2021/06/08 01:57:07;;;;;;;;;;;;;;;16.26;68.51;99800.94;4309746;33;34565;-95
2021/06/08 02:00:01;;;;;;;;;;;;;;;15.88;69.79;99810.87;4321343;33;34707;-91
2021/06/08 02:02:56;;;;;;;;;;;;;;;16.19;68.97;99814.59;4305243;33;33368;-96
2021/06/08 02:05:32;;;;;;;;;;;;;;;16.23;68.88;99807.66;4275176;33;33014;-91
2021/06/08 02:08:10;;;;;;;;;;;;;;;15.98;69.61;99801.38;4291359;33;33980;-91
2021/06/08 02:10:48;;;;;;;;;;;;;;;16.25;68.69;99807.44;4291279;33;34681;-96
2021/06/08 02:13:51;;;;;;;;;;;;;;;16.30;68.63;99813.06;4301594;33;34581;-96
2021/06/08 02:16:28;;;;;;;;;;;;;;;16.59;67.72;99813.41;4292297;33;34149;-91
2021/06/08 02:19:02;;;;;;;;;;;;;;;16.60;67.74;99817.78;4304873;33;33746;-96
2021/06/08 02:21:39;;;;;;;;;;;;;;;16.54;67.69;99815.97;4291650;33;34334;-91
2021/06/08 02:24:12;;;;;;;;;;;;;;;16.55;67.85;99814.91;4291569;33;37339;-96
2021/06/08 02:26:46;;;;;;;;;;;;;;;16.60;67.73;99809.59;4278871;33;34718;-96
2021/06/08 02:29:32;;;;;;;;;;;;;;;16.65;68.19;99814.41;4280228;33;34026;-96
2021/06/08 02:32:05;;;;;;;;;;;;;;;16.72;68.17;99815.16;4301741;33;34836;-91
2021/06/08 02:34:38;;;;;;;;;;;;;;;16.86;68.14;99808.50;4290458;33;34689;-92
2021/06/08 02:37:10;;;;;;;;;;;;;;;17.02;67.60;99809.84;4296023;33;34767;-96
2021/06/08 02:39:54;;;;;;;;;;;;;;;17.06;67.63;99810.19;4308652;33;33177;-96
2021/06/08 02:42:27;;;;;;;;;;;;;;;17.10;67.41;99812.25;4295263;33;34131;-92
2021/06/08 02:45:01;;;;;;;;;;;;;;;17.18;66.59;99813.00;4306215;33;36247;-96
2021/06/08 02:47:34;;;;;;;;;;;;;;;17.18;67.08;99804.81;4291409;33;34280;-92
2021/06/08 02:50:08;;;;;;;;;;;;;;;17.05;67.78;99808.53;4314945;33;33687;-96
2021/06/08 02:53:15;;;;;;;;;;;;;;;17.26;67.00;99807.22;4249854;27;36081;-94
2021/06/08 02:56:01;;;;;;;;;;;;;;;17.39;66.72;99793.38;4280545;33;33677;-96
2021/06/08 02:58:54;;;;;;;;;;;;;;;17.66;65.86;99803.94;4301229;33;32871;-92
2021/06/08 03:01:53;;;;;;;;;;;;;;;17.49;66.82;99800.22;4308733;33;31486;-96
2021/06/08 03:04:27;;;;;;;;;;;;;;;17.41;67.79;99807.66;4295838;33;33357;-96
2021/06/08 03:07:14;;;;;;;;;;;;;;;17.54;67.80;99803.06;4304184;33;34580;-91
2021/06/08 03:10:05;;;;;;;;;;;;;;;17.74;67.05;99806.34;4292020;33;34381;-93
2021/06/08 03:13:35;;;;;;;;;;;;;;;17.67;67.46;99811.09;4129838;27;34295;-94
2021/06/08 03:16:11;;;;;;;;;;;;;;;17.87;67.01;99804.47;4303723;33;33775;-93
2021/06/08 03:18:45;;;;;;;;;;;;;;;17.89;67.12;99807.81;4290624;33;35024;-93
2021/06/08 03:21:18;;;;;;;;;;;;;;;18.00;66.54;99799.66;4293240;33;34273;-92
2021/06/08 03:23:52;;;;;;;;;;;;;;;17.93;66.95;99807.12;4295665;33;33752;-96
2021/06/08 03:26:25;;;;;;;;;;;;;;;17.76;67.80;99806.12;4294743;33;32603;-91
2021/06/08 03:28:58;;;;;;;;;;;;;;;18.24;66.31;99810.63;4294240;33;34514;-92
2021/06/08 03:31:31;;;;;;;;;;;;;;;18.38;66.06;99811.22;4293691;33;34294;-96
2021/06/08 03:34:28;;;;;;;;;;;;;;;18.38;65.71;99811.22;4305786;33;34165;-96
2021/06/08 03:37:05;;;;;;;;;;;;;;;18.46;65.61;99810.06;4292772;33;34471;-96
2021/06/08 03:39:53;;;;;;;;;;;;;;;18.30;66.44;99812.41;4316563;33;34336;-96
2021/06/08 03:42:26;;;;;;;;;;;;;;;18.44;66.35;99810.31;4302804;33;34695;-96
2021/06/08 03:45:13;;;;;;;;;;;;;;;18.59;66.04;99811.72;4269858;33;33359;-96
2021/06/08 03:47:46;;;;;;;;;;;;;;;18.60;66.27;99818.87;4293481;33;34198;-96
2021/06/08 03:50:39;;;;;;;;;;;;;;;18.57;66.80;99824.81;4298492;33;34895;-96
2021/06/08 03:53:12;;;;;;;;;;;;;;;18.58;66.59;99816.38;4279696;33;34013;-92
2021/06/08 03:55:48;;;;;;;;;;;;;;;18.72;66.38;99816.13;4280964;33;33541;-96
2021/06/08 03:58:21;;;;;;;;;;;;;;;18.94;65.83;99819.13;4290210;33;34586;-93
2021/06/08 04:00:58;;;;;;;;;;;;;;;18.90;65.82;99812.44;4291765;33;35098;-91
2021/06/08 04:03:33;;;;;;;;;;;;;;;18.93;66.30;99820.19;4305283;33;34249;-94
2021/06/08 04:06:05;;;;;;;;;;;;;;;18.82;67.31;99816.34;4292306;33;32979;-92
2021/06/08 04:08:42;;;;;;;;;;;;;;;18.99;66.55;99816.47;4279652;33;33975;-96
2021/06/08 04:11:19;;;;;;;;;;;;;;;19.14;66.23;99816.78;4277423;33;32971;-96
2021/06/08 04:14:09;;;;;;;;;;;;;;;19.10;66.70;99820.25;4292025;33;36766;-95
2021/06/08 04:16:42;;;;;;;;;;;;;;;19.38;65.69;99817.53;4304268;33;32189;-96
2021/06/08 04:19:36;;;;;;;;;;;;;;;19.51;65.35;99813.69;4329334;33;34802;-96
2021/06/08 04:22:09;;;;;;;;;;;;;;;19.78;64.61;99813.13;4320013;33;33521;-96
2021/06/08 04:25:00;;;;;;;;;;;;;;;19.58;65.36;99811.63;4294437;33;35419;-96
2021/06/08 04:27:35;;;;;;;;;;;;;;;19.87;64.42;99814.38;4311683;33;33086;-96
2021/06/08 04:30:21;;;;;;;;;;;;;;;20.04;64.46;99810.81;4290288;33;34084;-94
2021/06/08 04:32:54;;;;;;;;;;;;;;;19.97;65.39;99813.75;4295511;33;33967;-96
2021/06/08 04:35:43;;;;;;;;;;;;;;;20.24;65.18;99813.91;4306542;33;34781;-94
2021/06/08 04:38:16;;;;;;;;;;;;;;;20.35;65.23;99811.34;4294704;33;32904;-96
2021/06/08 04:41:03;;;;;;;;;;;;;;;20.51;64.91;99815.97;4317170;33;34537;-96
2021/06/08 04:43:50;;;;;;;;;;;;;;;20.62;65.10;99814.22;4284534;33;35652;-96
2021/06/08 04:46:39;;;;;;;;;;;;;;;20.93;64.51;99815.50;4328333;33;32655;-93
2021/06/08 04:49:15;;;;;;;;;;;;;;;21.01;65.02;99824.41;4302930;33;32980;-96
2021/06/08 04:52:04;;;;;;;;;;;;;;;21.12;65.43;99820.69;4317682;33;34791;-94
2021/06/08 04:54:37;;;;;;;;;;;;;;;21.56;64.18;99823.44;4318171;27;34452;-96
2021/06/08 04:57:23;;;;;;;;;;;;;;;21.61;63.77;99823.47;4316856;33;34470;-96
2021/06/08 05:00:08;;;;;;;;;;;;;;;21.71;64.13;99827.44;4318089;33;33531;-96
2021/06/08 05:03:04;;;;;;;;;;;;;;;21.83;63.60;99826.19;4288398;33;34937;-94
2021/06/08 05:05:39;;;;;;;;;;;;;;;22.07;62.74;99827.81;4297860;33;33618;-96
2021/06/08 05:08:36;;;;;;;;;;;;;;;22.33;61.53;99826.94;4318163;33;34427;-93
2021/06/08 05:11:19;;;;;;;;;;;;;;;22.66;61.16;99835.16;4327579;33;33492;-96
2021/06/08 05:14:21;;;;;;;;;;;;;;;22.94;60.60;99828.44;4314205;33;33332;-96
2021/06/08 05:16:54;;;;;;;;;;;;;;;23.23;59.82;99826.13;4293031;33;34013;-96
2021/06/08 05:19:42;;;;;;;;;;;;;;;23.35;58.68;99831.38;4282219;33;34641;-93
2021/06/08 05:22:17;;;;;;;;;;;;;;;23.45;59.12;99828.69;4274404;33;33896;-96
2021/06/08 05:25:07;;;;;;;;;;;;;;;23.38;59.52;99838.31;4301047;33;33238;-96
2021/06/08 05:27:58;;;;;;;;;;;;;;;23.58;58.38;99834.81;4282596;33;32790;-96
2021/06/08 05:30:47;;;;;;;;;;;;;;;23.75;57.99;99834.56;4259537;33;34571;-96
2021/06/08 05:33:22;;;;;;;;;;;;;;;23.75;56.61;99838.12;4256634;33;33408;-96
2021/06/08 05:36:11;;;;;;;;;;;;;;;23.86;56.98;99840.94;4294850;33;34871;-96
2021/06/08 05:38:46;;;;;;;;;;;;;;;23.82;55.20;99834.28;4299857;33;32429;-96
2021/06/08 05:41:32;;;;;;;;;;;;;;;23.88;55.17;99847.03;4272339;33;33060;-93
2021/06/08 05:44:10;;;;;;;;;;;;;;;24.02;55.00;99848.16;4285664;33;33022;-92
2021/06/08 05:46:43;;;;;;;;;;;;;;;24.01;54.70;99849.25;4286025;33;34168;-92
2021/06/08 05:49:15;;;;;;;;;;;;;;;23.76;54.49;99839.81;4290376;33;34451;-92
2021/06/08 05:51:49;;;;;;;;;;;;;;;23.86;53.16;99849.22;4286526;33;35150;-92
2021/06/08 05:54:22;;;;;;;;;;;;;;;23.84;52.36;99845.88;4298899;33;34618;-92
2021/06/08 05:56:57;;;;;;;;;;;;;;;23.97;51.91;99848.97;4303713;33;34460;-93
2021/06/08 05:59:46;;;;;;;;;;;;;;;24.11;51.80;99849.25;4305203;33;34644;-96
2021/06/08 06:06:07;;;;;;;;;;;;;;;24.14;50.87;99851.47;4890323;27;19998;31
2021/06/08 06:09:25;;;;;;;;;;;;;;;24.67;46.82;99850.38;4784792;27;20400;-95
2021/06/08 06:12:23;;;;;;;;;;;;;;;24.53;46.12;99847.31;4412831;27;32797;-93
2021/06/08 06:15:03;;;;;;;;;;;;;;;24.47;47.92;99853.97;4287845;33;33915;-93
2021/06/08 06:17:37;;;;;;;;;;;;;;;24.88;46.13;99847.56;4291314;33;32916;-96
2021/06/08 06:20:13;;;;;;;;;;;;;;;25.00;45.82;99850.84;4285402;33;32622;-96
2021/06/08 06:23:16;;;;;;;;;;;;;;;24.65;42.62;99849.81;4298604;33;35190;-96
2021/06/08 06:26:00;;;;;;;;;;;;;;;24.59;44.16;99856.47;4259858;33;33479;-92
2021/06/08 06:28:39;;;;;;;;;;;;;;;24.95;42.42;99853.63;4292704;28;35717;31
2021/06/08 06:31:21;;;;;;;;;;;;;;;25.18;42.69;99852.16;4279456;33;34041;-94
2021/06/08 06:33:56;;;;;;;;;;;;;;;25.07;42.28;99856.91;4261249;33;33947;-95
2021/06/08 06:36:29;;;;;;;;;;;;;;;25.17;41.37;99856.87;4259836;33;33225;-95
2021/06/08 06:39:18;;;;;;;;;;;;;;;24.94;41.72;99857.50;4261984;33;32922;-88
2021/06/08 06:42:12;;;;;;;;;;;;;;;25.11;40.93;99852.47;4256487;33;32772;-91
2021/06/08 06:44:58;;;;;;;;;;;;;;;25.09;42.36;99851.94;4257051;33;33595;-95
2021/06/08 06:47:35;;;;;;;;;;;;;;;25.44;42.42;99860.41;4257552;33;32420;-94
2021/06/08 06:50:24;;;;;;;;;;;;;;;25.47;42.99;99860.66;4279823;33;31935;-90
2021/06/08 06:53:12;;;;;;;;;;;;;;;25.33;40.64;99859.62;4280578;33;35036;-96
2021/06/08 06:56:02;;;;;;;;;;;;;;;25.49;41.77;99855.66;4275984;33;34178;-95
2021/06/08 06:58:45;;;;;;;;;;;;;;;25.29;40.17;99864.03;4300074;33;34354;-96
2021/06/08 07:01:36;;;;;;;;;;;;;;;25.83;41.35;99868.78;4307960;33;32030;-94
2021/06/08 07:04:10;;;;;;;;;;;;;;;25.98;41.44;99867.03;4294690;33;33222;-95
2021/06/08 07:07:03;;;;;;;;;;;;;;;25.99;40.35;99860.41;4328724;33;33448;-95
2021/06/08 07:09:36;;;;;;;;;;;;;;;25.93;41.21;99856.81;4317689;33;33422;-94
2021/06/08 07:12:27;;;;;;;;;;;;;;;26.03;39.74;99853.19;4315705;33;32152;-96
2021/06/08 07:15:00;;;;;;;;;;;;;;;26.38;39.82;99865.13;4294370;33;34588;-95
2021/06/08 07:17:49;;;;;;;;;;;;;;;26.28;39.78;99856.87;4293707;33;35023;-95
2021/06/08 07:20:37;;;;;;;;;;;;;;;26.39;40.42;99859.28;4316667;33;34126;-96
2021/06/08 07:23:24;;;;;;;;;;;;;;;26.70;40.46;99852.66;4291161;33;32342;-96
2021/06/08 07:26:01;;;;;;;;;;;;;;;26.63;40.10;99858.50;4278670;33;33588;-96
2021/06/08 07:28:48;;;;;;;;;;;;;;;26.79;38.84;99859.22;4310829;33;33825;-96
2021/06/08 07:31:31;;;;;;;;;;;;;;;26.58;38.65;99856.59;4301767;33;35282;-95
2021/06/08 07:34:25;;;;;;;;;;;;;;;26.93;38.38;99865.72;4275708;33;33107;-95
2021/06/08 07:37:14;;;;;;;;;;;;;;;26.86;40.43;99862.47;4267060;33;35395;-96
2021/06/08 07:39:58;;;;;;;;;;;;;;;26.59;37.68;99869.34;4278576;33;32735;-96
2021/06/08 07:42:56;;;;;;;;;;;;;;;27.20;38.61;99863.47;4298115;33;32876;-94
2021/06/08 07:45:31;;;;;;;;;;;;;;;26.89;37.97;99870.19;4295928;33;32408;-96
2021/06/08 07:48:23;;;;;;;;;;;;;;;27.06;38.71;99866.94;4293161;33;33537;-96
2021/06/08 07:51:09;;;;;;;;;;;;;;;27.47;37.69;99860.09;4275645;33;35974;-96
2021/06/08 07:53:50;;;;;;;;;;;;;;;27.88;37.01;99859.56;4265303;33;34678;-96
2021/06/08 07:56:23;;;;;;;;;;;;;;;27.80;36.24;99860.22;4264822;33;33601;-96
2021/06/08 07:59:04;;;;;;;;;;;;;;;28.07;36.57;99858.75;4279753;33;34182;-95
2021/06/08 08:01:39;;;;;;;;;;;;;;;28.28;36.58;99862.00;4279626;33;34296;-96
2021/06/08 08:04:32;;;;;;;;;;;;;;;28.07;35.54;99870.69;4266499;33;33029;-96
2021/06/08 08:07:05;;;;;;;;;;;;;;;28.44;34.66;99865.38;4290407;33;34221;-96
2021/06/08 08:09:54;;;;;;;;;;;;;;;28.17;35.68;99864.13;4286987;33;32362;-96
2021/06/08 08:12:43;;;;;;;;;;;;;;;28.52;36.79;99867.47;4305728;33;35690;-96
2021/06/08 08:15:22;;;;;;;;;;;;;;;28.47;34.38;99868.34;4293281;33;33146;-95
2021/06/08 08:21:01;;;;;;;;;;;;;;;29.09;32.77;99858.94;4280724;33;35581;-92
2021/06/08 08:23:35;;;;;;;;;;;;;;;29.18;32.95;99856.25;4301980;33;35842;-96
2021/06/08 08:26:09;;;;;;;;;;;;;;;29.27;33.03;99860.00;4296476;33;32562;-93
2021/06/08 08:28:49;;;;;;;;;;;;;;;29.43;32.07;99856.87;4315763;33;33720;-93
2021/06/08 08:31:27;;;;;;;;;;;;;;;29.37;32.63;99864.50;4315565;33;33997;-90
2021/06/08 08:34:01;;;;;;;;;;;;;;;29.19;32.41;99855.09;4260772;33;34454;-92
2021/06/08 08:36:38;;;;;;;;;;;;;;;29.56;31.44;99858.81;4291256;33;37495;-96
2021/06/08 08:39:33;;;;;;;;;;;;;;;29.53;32.66;99867.78;4303736;33;33236;-96
2021/06/08 08:42:07;;;;;;;;;;;;;;;30.01;35.73;99867.28;4282860;33;34437;-96
2021/06/08 08:44:59;;;;;;;;;;;;;;;30.41;31.46;99863.87;4283729;33;33473;-90
2021/06/08 08:47:37;;;;;;;;;;;;;;;30.57;31.97;99861.50;4289301;33;33523;-96
2021/06/08 08:50:27;;;;;;;;;;;;;;;30.33;29.62;99868.22;4282776;33;34090;-96
2021/06/08 08:53:03;;;;;;;;;;;;;;;30.80;29.35;99860.31;4252569;33;33121;-88
2021/06/08 08:55:53;;;;;;;;;;;;;;;30.47;28.83;99857.00;4323170;33;34036;-93
2021/06/08 08:58:27;;;;;;;;;;;;;;;30.57;28.38;99858.69;4321442;33;34651;-93
2021/06/08 09:01:00;;;;;;;;;;;;;;;31.05;29.62;99858.00;4316674;32;32510;-94
2021/06/08 09:03:35;;;;;;;;;;;;;;;30.89;29.34;99865.13;4327743;33;33668;-95
2021/06/08 09:06:16;;;;;;;;;;;;;;;30.87;28.81;99851.50;4404487;27;33852;-96
2021/06/08 09:09:08;;;;;;;;;;;;;;;30.40;29.79;99854.66;4300278;33;32672;-93
2021/06/08 09:11:42;;;;;;;;;;;;;;;30.23;31.88;99851.75;4300415;33;33140;-92
2021/06/08 09:14:16;;;;;;;;;;;;;;;30.37;31.43;99855.25;4287258;33;34125;-96
2021/06/08 09:17:19;;;;;;;;;;;;;;;29.82;32.60;99852.69;4314601;33;34724;-96
2021/06/08 09:19:59;;;;;;;;;;;;;;;29.94;33.08;99852.97;4313690;33;32965;-93
2021/06/08 09:22:58;;;;;;;;;;;;;;;29.16;31.94;99847.38;4306291;33;32481;-96
2021/06/08 09:25:44;;;;;;;;;;;;;;;29.02;33.70;99842.63;4312268;33;32664;-93
2021/06/08 09:28:28;;;;;;;;;;;;;;;28.97;33.72;99850.25;4310685;33;33625;-95
2021/06/08 09:31:20;;;;;;;;;;;;;;;28.83;34.02;99845.53;4311274;33;37089;-96
2021/06/08 09:34:09;;;;;;;;;;;;;;;28.74;34.72;99846.53;4306557;33;32191;-96
2021/06/08 09:36:45;;;;;;;;;;;;;;;28.90;35.67;99847.06;4300189;33;34447;-96
2021/06/08 09:39:33;;;;;;;;;;;;;;;28.95;36.49;99847.78;4311761;33;34181;-96
2021/06/08 09:42:17;;;;;;;;;;;;;;;29.03;35.37;99849.84;4304040;33;34183;-96
2021/06/08 09:45:10;;;;;;;;;;;;;;;29.23;35.52;99836.69;4294926;33;32234;-94
2021/06/08 09:47:43;;;;;;;;;;;;;;;29.54;34.19;99841.63;4299438;33;34139;-94
2021/06/08 09:50:29;;;;;;;;;;;;;;;29.82;33.08;99842.41;4302662;33;34090;-96
2021/06/08 09:53:21;;;;;;;;;;;;;;;29.98;33.50;99837.28;4298013;33;32881;-94
2021/06/08 09:56:02;;;;;;;;;;;;;;;29.99;33.68;99836.16;4308089;33;32435;-94
2021/06/08 09:58:44;;;;;;;;;;;;;;;30.14;33.15;99837.75;4326371;33;33727;-94
2021/06/08 10:01:29;;;;;;;;;;;;;;;30.02;31.63;99843.06;4275145;33;32898;-96
2021/06/08 10:04:19;;;;;;;;;;;;;;;30.34;33.21;99836.38;4247517;33;1724655;-96
2021/06/08 10:06:55;;;;;;;;;;;;;;;29.85;31.72;99836.22;4326360;28;34602;-96
2021/06/08 10:09:40;;;;;;;;;;;;;;;30.15;31.05;99832.97;4260696;33;28574;-95
2021/06/08 10:12:19;;;;;;;;;;;;;;;30.52;30.62;99829.00;4280083;33;33779;-96
2021/06/08 10:15:04;;;;;;;;;;;;;;;30.09;30.26;99830.34;4293986;33;35516;-94
2021/06/08 10:17:59;;;;;;;;;;;;;;;29.84;32.22;99834.53;4315012;33;31940;-96
2021/06/08 10:20:56;;;;;;;;;;;;;;;30.34;32.29;99827.22;4322874;33;34815;-95
2021/06/08 10:23:31;;;;;;;;;;;;;;;30.73;29.92;99818.09;4321535;33;33568;-96
2021/06/08 10:26:10;;;;;;;;;;;;;;;30.92;28.90;99817.06;4316958;33;34338;-91
2021/06/08 10:29:01;;;;;;;;;;;;;;;31.32;29.40;99817.03;4294997;33;32628;-95
2021/06/08 10:31:51;;;;;;;;;;;;;;;31.85;28.63;99821.56;4312338;33;34631;-96
2021/06/08 10:34:28;;;;;;;;;;;;;;;31.98;27.52;99819.75;4302593;33;34627;-95
2021/06/08 10:37:13;;;;;;;;;;;;;;;31.93;27.13;99810.72;4283531;33;32788;-94
2021/06/08 10:39:55;;;;;;;;;;;;;;;32.30;27.91;99805.59;4281242;33;33848;-93
2021/06/08 10:42:31;;;;;;;;;;;;;;;32.17;29.40;99811.06;4292546;33;34913;-93
2021/06/08 10:45:05;;;;;;;;;;;;;;;31.99;30.21;99809.38;4292885;33;33258;-92
2021/06/08 10:47:45;;;;;;;;;;;;;;;31.58;31.31;99805.13;4294959;33;34939;-93
2021/06/08 10:50:27;;;;;;;;;;;;;;;31.24;29.99;99803.87;4293184;33;33035;-93
2021/06/08 10:53:03;;;;;;;;;;;;;;;31.33;28.02;99804.72;4295454;33;33482;-93
2021/06/08 10:55:38;;;;;;;;;;;;;;;31.01;28.92;99801.19;4294329;33;36046;-95
2021/06/08 10:58:16;;;;;;;;;;;;;;;30.73;29.16;99803.34;4293189;33;33853;-93
2021/06/08 11:00:52;;;;;;;;;;;;;;;30.94;28.59;99806.38;4282028;33;33918;-93
2021/06/08 11:03:54;;;;;;;;;;;;;;;30.96;30.90;99804.13;4294167;33;33256;-93
2021/06/08 11:06:49;;;;;;;;;;;;;;;31.37;27.64;99811.28;4300077;33;34151;-92
2021/06/08 11:09:22;;;;;;;;;;;;;;;31.31;27.99;99796.66;4293414;33;33936;-95
2021/06/08 11:12:03;;;;;;;;;;;;;;;31.55;27.34;99795.41;4470023;27;34576;-95
2021/06/08 11:14:44;;;;;;;;;;;;;;;32.13;25.69;99796.09;4368502;28;33618;-93
2021/06/08 11:17:20;;;;;;;;;;;;;;;32.37;25.40;99789.97;4312933;33;35207;-94
2021/06/08 11:20:14;;;;;;;;;;;;;;;31.88;25.24;99797.72;4295074;33;33552;-93
2021/06/08 11:22:47;;;;;;;;;;;;;;;31.50;27.88;99788.00;4286227;33;32552;-96
2021/06/08 11:25:54;;;;;;;;;;;;;;;31.75;27.50;99793.94;4007925;27;35443;-96
2021/06/08 11:28:58;;;;;;;;;;;;;;;32.12;27.29;99786.06;4260839;33;34241;-96
2021/06/08 11:31:57;;;;;;;;;;;;;;;32.79;27.90;99789.34;4274020;33;32708;-96
2021/06/08 11:34:56;;;;;;;;;;;;;;;33.49;28.43;99797.38;4269157;33;33394;-93
2021/06/08 11:37:46;;;;;;;;;;;;;;;33.70;25.44;99790.94;4275263;33;33740;-93
2021/06/08 11:40:42;;;;;;;;;;;;;;;33.90;23.89;99783.72;4263636;33;34481;-93
2021/06/08 11:43:21;;;;;;;;;;;;;;;34.08;24.22;99781.59;4277951;33;32981;-96
2021/06/08 11:46:02;;;;;;;;;;;;;;;34.38;24.56;99775.84;4294119;33;31543;-96
2021/06/08 11:49:22;;;;;;;;;;;;;;;34.64;23.99;99776.38;4277784;33;32716;-96
2021/06/08 11:52:19;;;;;;;;;;;;;;;34.62;22.68;99777.88;4284501;33;35177;-96
2021/06/08 11:55:22;;;;;;;;;;;;;;;34.95;23.92;99775.00;4333445;33;33325;-96
2021/06/08 11:58:01;;;;;;;;;;;;;;;34.51;21.56;99771.06;4308402;33;34087;-96
2021/06/08 12:01:48;;;;;;;;;;;;;;;35.07;23.06;99765.75;4345092;27;35078;-94
2021/06/08 12:04:26;;;;;;;;;;;;;;;34.71;22.37;99756.13;4314341;33;35526;-96
2021/06/08 12:07:00;;;;;;;;;;;;;;;35.24;21.55;99763.84;4296964;33;33145;-92
2021/06/08 12:09:44;;;;;;;;;;;;;;;34.67;22.19;99766.41;4300322;33;33774;-92
2021/06/08 12:12:17;;;;;;;;;;;;;;;33.89;24.19;99766.09;4297351;33;34555;-96
2021/06/08 12:15:08;;;;;;;;;;;;;;;33.75;24.40;99759.97;4318094;33;34241;-96
2021/06/08 12:17:54;;;;;;;;;;;;;;;33.45;22.34;99762.00;4319979;33;33777;-94
2021/06/08 12:20:34;;;;;;;;;;;;;;;33.73;25.71;99756.66;4312989;33;32409;-93
2021/06/08 12:23:36;;;;;;;;;;;;;;;34.33;24.54;99748.03;4333525;33;33912;-94
2021/06/08 12:26:14;;;;;;;;;;;;;;;34.81;23.12;99749.28;4328930;33;32153;-92
2021/06/08 12:29:07;;;;;;;;;;;;;;;34.72;22.72;99745.72;4303988;33;34546;-91
2021/06/08 12:31:39;;;;;;;;;;;;;;;34.90;21.29;99738.75;4309449;33;34860;-92
2021/06/08 12:34:19;;;;;;;;;;;;;;;35.03;23.16;99741.53;4306847;33;34514;-89
2021/06/08 12:36:53;;;;;;;;;;;;;;;34.71;23.70;99738.50;4311504;33;34057;-89
2021/06/08 12:39:28;;;;;;;;;;;;;;;35.18;22.34;99741.66;4316638;33;33766;-89
2021/06/08 12:42:07;;;;;;;;;;;;;;;35.14;23.78;99739.91;4314899;33;33131;-94
2021/06/08 12:44:41;;;;;;;;;;;;;;;35.16;24.93;99738.34;4314442;33;34230;-89
2021/06/08 12:47:14;;;;;;;;;;;;;;;34.97;21.73;99733.38;4310279;33;34732;-89
2021/06/08 12:49:48;;;;;;;;;;;;;;;35.43;21.92;99735.19;4309293;33;34129;-89
2021/06/08 12:52:21;;;;;;;;;;;;;;;35.43;22.47;99735.97;4307831;33;34844;-91
2021/06/08 12:54:55;;;;;;;;;;;;;;;35.71;21.71;99730.38;4308684;33;33904;-92
2021/06/08 12:57:28;;;;;;;;;;;;;;;35.96;22.82;99727.50;4308887;33;34487;-94
2021/06/08 13:00:18;;;;;;;;;;;;;;;36.19;20.80;99721.28;4307911;33;33930;-90
2021/06/08 13:02:50;;;;;;;;;;;;;;;36.44;21.42;99718.31;4310416;33;32879;-91
2021/06/08 13:05:26;;;;;;;;;;;;;;;34.82;23.40;99728.44;4308735;33;33927;-93
2021/06/08 13:07:59;;;;;;;;;;;;;;;34.80;23.29;99722.38;4307865;33;35342;-92
2021/06/08 13:10:33;;;;;;;;;;;;;;;34.52;24.28;99737.06;4312986;33;34012;-94
2021/06/08 13:13:06;;;;;;;;;;;;;;;34.17;25.55;99731.03;4295798;33;33592;-88
2021/06/08 13:15:40;;;;;;;;;;;;;;;34.54;24.20;99723.53;4307715;33;33972;-90
2021/06/08 13:18:12;;;;;;;;;;;;;;;34.95;25.19;99718.84;4307399;33;33964;-89
2021/06/08 13:20:53;;;;;;;;;;;;;;;35.11;24.35;99726.56;4308377;33;34501;-90
2021/06/08 13:23:30;;;;;;;;;;;;;;;34.92;23.55;99716.75;4306747;33;33692;-94
2021/06/08 13:26:08;;;;;;;;;;;;;;;34.74;23.10;99715.34;4315275;33;34123;-92
2021/06/08 13:28:42;;;;;;;;;;;;;;;35.08;21.43;99713.25;4310905;33;34530;-89
2021/06/08 13:31:15;;;;;;;;;;;;;;;35.43;22.68;99709.91;4315266;33;33635;-90
2021/06/08 13:33:48;;;;;;;;;;;;;;;35.53;21.40;99712.22;4310730;33;34227;-88
2021/06/08 13:36:24;;;;;;;;;;;;;;;35.69;20.47;99704.66;4296588;33;33339;-89
2021/06/08 13:39:09;;;;;;;;;;;;;;;35.68;22.27;99707.81;4308283;33;33707;-88
2021/06/08 13:41:42;;;;;;;;;;;;;;;35.46;19.88;99700.75;4307888;33;35802;-93
2021/06/08 13:44:14;;;;;;;;;;;;;;;35.34;22.50;99710.84;4306350;33;33179;-90
2021/06/08 13:46:54;;;;;;;;;;;;;;;35.32;22.64;99701.97;4308200;33;34847;-92
2021/06/08 13:49:39;;;;;;;;;;;;;;;35.54;22.93;99696.97;4310789;33;34817;-92
2021/06/08 13:52:12;;;;;;;;;;;;;;;35.81;22.13;99698.19;4312145;33;34448;-92
2021/06/08 13:54:45;;;;;;;;;;;;;;;35.85;21.53;99695.47;4313511;33;33909;-89
2021/06/08 13:57:20;;;;;;;;;;;;;;;35.96;22.95;99690.13;4312836;33;33454;-92
2021/06/08 14:02:49;;;;;;;;;;;;;;;35.95;20.62;99682.88;4307344;33;33620;-92
2021/06/08 14:05:22;;;;;;;;;;;;;;;35.60;20.95;99677.88;4313310;33;32944;-90
2021/06/08 14:07:55;;;;;;;;;;;;;;;35.66;20.77;99688.50;4315025;33;34468;-89
2021/06/08 14:10:28;;;;;;;;;;;;;;;35.68;21.68;99680.53;4303912;33;34400;-92
2021/06/08 14:13:05;;;;;;;;;;;;;;;35.63;21.14;99679.97;4297961;33;32832;-91
2021/06/08 14:15:49;;;;;;;;;;;;;;;35.65;21.73;99678.44;4311523;33;33155;-92
2021/06/08 14:18:22;;;;;;;;;;;;;;;35.42;22.94;99682.97;4313127;33;34080;-92
2021/06/08 14:20:56;;;;;;;;;;;;;;;35.24;22.84;99674.84;4315223;33;33949;-91